sensor_id;sensor_type;location;lat;lon;timestamp;temperature;humidity
40516;DHT22;26216;53.724;9.898;2022-08-19T00:01:36;22.60;82.70
40516;DHT22;26216;53.724;9.898;2022-08-19T00:04:08;22.60;82.70
40516;DHT22;26216;53.724;9.898;2022-08-19T00:06:34;22.60;83.40
40516;DHT22;26216;53.724;9.898;2022-08-19T00:09:02;22.50;83.20
40516;DHT22;26216;53.724;9.898;2022-08-19T00:11:28;22.50;83.20
40516;DHT22;26216;53.724;9.898;2022-08-19T00:13:55;22.50;83.20
40516;DHT22;26216;53.724;9.898;2022-08-19T00:16:23;22.50;83.30
40516;DHT22;26216;53.724;9.898;2022-08-19T00:18:49;22.50;83.40
40516;DHT22;26216;53.724;9.898;2022-08-19T00:21:15;22.50;83.70
40516;DHT22;26216;53.724;9.898;2022-08-19T00:23:42;22.40;83.80
40516;DHT22;26216;53.724;9.898;2022-08-19T00:26:09;22.40;83.60
40516;DHT22;26216;53.724;9.898;2022-08-19T00:28:35;22.40;84.60
40516;DHT22;26216;53.724;9.898;2022-08-19T00:31:03;22.30;84.70
40516;DHT22;26216;53.724;9.898;2022-08-19T00:33:30;22.30;84.60
40516;DHT22;26216;53.724;9.898;2022-08-19T00:36:04;22.30;84.80
40516;DHT22;26216;53.724;9.898;2022-08-19T00:38:30;22.30;84.90
40516;DHT22;26216;53.724;9.898;2022-08-19T00:40:57;22.20;85.10
40516;DHT22;26216;53.724;9.898;2022-08-19T00:43:25;22.20;84.80
40516;DHT22;26216;53.724;9.898;2022-08-19T00:45:52;22.20;86.30
40516;DHT22;26216;53.724;9.898;2022-08-19T00:48:19;22.10;86.10
40516;DHT22;26216;53.724;9.898;2022-08-19T00:50:48;22.10;86.30
40516;DHT22;26216;53.724;9.898;2022-08-19T00:53:18;22.00;87.60
40516;DHT22;26216;53.724;9.898;2022-08-19T00:55:49;22.00;86.60
40516;DHT22;26216;53.724;9.898;2022-08-19T00:58:16;22.00;87.60
40516;DHT22;26216;53.724;9.898;2022-08-19T01:00:44;21.90;87.10
40516;DHT22;26216;53.724;9.898;2022-08-19T01:03:12;22.00;87.00
40516;DHT22;26216;53.724;9.898;2022-08-19T01:05:42;21.90;88.10
40516;DHT22;26216;53.724;9.898;2022-08-19T01:08:08;21.90;88.10
40516;DHT22;26216;53.724;9.898;2022-08-19T01:10:42;21.80;87.90
40516;DHT22;26216;53.724;9.898;2022-08-19T01:13:10;21.80;87.90
40516;DHT22;26216;53.724;9.898;2022-08-19T01:15:45;21.80;87.50
40516;DHT22;26216;53.724;9.898;2022-08-19T01:18:15;21.80;87.90
40516;DHT22;26216;53.724;9.898;2022-08-19T01:20:42;21.80;87.80
40516;DHT22;26216;53.724;9.898;2022-08-19T01:23:09;21.80;87.50
40516;DHT22;26216;53.724;9.898;2022-08-19T01:25:43;21.80;87.90
40516;DHT22;26216;53.724;9.898;2022-08-19T01:28:19;21.80;88.30
40516;DHT22;26216;53.724;9.898;2022-08-19T01:30:45;21.80;87.90
40516;DHT22;26216;53.724;9.898;2022-08-19T01:33:13;21.80;88.30
40516;DHT22;26216;53.724;9.898;2022-08-19T01:35:39;21.80;88.50
40516;DHT22;26216;53.724;9.898;2022-08-19T01:38:09;21.70;89.20
40516;DHT22;26216;53.724;9.898;2022-08-19T01:40:37;21.70;89.00
40516;DHT22;26216;53.724;9.898;2022-08-19T01:43:04;21.70;88.40
40516;DHT22;26216;53.724;9.898;2022-08-19T01:45:32;21.70;88.20
40516;DHT22;26216;53.724;9.898;2022-08-19T01:48:00;21.70;89.00
40516;DHT22;26216;53.724;9.898;2022-08-19T01:50:26;21.60;88.70
40516;DHT22;26216;53.724;9.898;2022-08-19T01:52:52;21.60;89.70
40516;DHT22;26216;53.724;9.898;2022-08-19T01:55:19;21.60;89.20
40516;DHT22;26216;53.724;9.898;2022-08-19T01:57:52;21.60;89.10
40516;DHT22;26216;53.724;9.898;2022-08-19T02:00:22;21.60;89.10
40516;DHT22;26216;53.724;9.898;2022-08-19T02:02:47;21.50;90.10
40516;DHT22;26216;53.724;9.898;2022-08-19T02:05:13;21.50;89.80
40516;DHT22;26216;53.724;9.898;2022-08-19T02:07:40;21.50;89.90
40516;DHT22;26216;53.724;9.898;2022-08-19T02:10:11;21.50;89.60
40516;DHT22;26216;53.724;9.898;2022-08-19T02:12:37;21.50;89.80
40516;DHT22;26216;53.724;9.898;2022-08-19T02:15:03;21.50;90.20
40516;DHT22;26216;53.724;9.898;2022-08-19T02:17:30;21.40;90.20
40516;DHT22;26216;53.724;9.898;2022-08-19T02:19:56;21.40;90.40
40516;DHT22;26216;53.724;9.898;2022-08-19T02:22:23;21.40;90.40
40516;DHT22;26216;53.724;9.898;2022-08-19T02:24:54;21.30;90.50
40516;DHT22;26216;53.724;9.898;2022-08-19T02:27:21;21.30;90.60
40516;DHT22;26216;53.724;9.898;2022-08-19T02:29:48;21.30;90.50
40516;DHT22;26216;53.724;9.898;2022-08-19T02:32:15;21.30;90.50
40516;DHT22;26216;53.724;9.898;2022-08-19T02:34:41;21.30;90.50
40516;DHT22;26216;53.724;9.898;2022-08-19T02:37:08;21.20;90.60
40516;DHT22;26216;53.724;9.898;2022-08-19T02:39:56;21.20;90.80
40516;DHT22;26216;53.724;9.898;2022-08-19T02:42:23;21.20;90.80
40516;DHT22;26216;53.724;9.898;2022-08-19T02:44:49;21.20;90.60
40516;DHT22;26216;53.724;9.898;2022-08-19T02:47:15;21.20;90.60
40516;DHT22;26216;53.724;9.898;2022-08-19T02:49:41;21.10;90.80
40516;DHT22;26216;53.724;9.898;2022-08-19T02:52:08;21.10;90.90
40516;DHT22;26216;53.724;9.898;2022-08-19T02:54:34;21.10;91.00
40516;DHT22;26216;53.724;9.898;2022-08-19T02:56:59;21.10;90.90
40516;DHT22;26216;53.724;9.898;2022-08-19T02:59:25;21.10;91.10
40516;DHT22;26216;53.724;9.898;2022-08-19T03:01:52;21.10;91.00
40516;DHT22;26216;53.724;9.898;2022-08-19T03:04:18;21.10;90.90
40516;DHT22;26216;53.724;9.898;2022-08-19T03:06:46;21.10;90.70
40516;DHT22;26216;53.724;9.898;2022-08-19T03:09:13;21.10;90.70
40516;DHT22;26216;53.724;9.898;2022-08-19T03:11:39;21.10;90.60
40516;DHT22;26216;53.724;9.898;2022-08-19T03:14:07;21.10;90.70
40516;DHT22;26216;53.724;9.898;2022-08-19T03:16:36;21.10;90.70
40516;DHT22;26216;53.724;9.898;2022-08-19T03:19:05;21.20;90.50
40516;DHT22;26216;53.724;9.898;2022-08-19T03:21:32;21.20;90.50
40516;DHT22;26216;53.724;9.898;2022-08-19T03:24:04;21.20;90.50
40516;DHT22;26216;53.724;9.898;2022-08-19T03:26:31;21.20;90.50
40516;DHT22;26216;53.724;9.898;2022-08-19T03:28:57;21.30;90.40
40516;DHT22;26216;53.724;9.898;2022-08-19T03:31:25;21.30;90.40
40516;DHT22;26216;53.724;9.898;2022-08-19T03:33:52;21.30;90.40
40516;DHT22;26216;53.724;9.898;2022-08-19T03:36:25;21.30;90.40
40516;DHT22;26216;53.724;9.898;2022-08-19T03:38:55;21.30;90.50
40516;DHT22;26216;53.724;9.898;2022-08-19T03:41:24;21.40;90.40
40516;DHT22;26216;53.724;9.898;2022-08-19T03:43:51;21.40;90.30
40516;DHT22;26216;53.724;9.898;2022-08-19T03:46:20;21.40;90.40
40516;DHT22;26216;53.724;9.898;2022-08-19T03:48:47;21.40;90.30
40516;DHT22;26216;53.724;9.898;2022-08-19T03:51:25;21.40;90.30
40516;DHT22;26216;53.724;9.898;2022-08-19T03:53:53;21.40;90.20
40516;DHT22;26216;53.724;9.898;2022-08-19T03:56:19;21.40;90.20
40516;DHT22;26216;53.724;9.898;2022-08-19T03:58:45;21.40;90.10
40516;DHT22;26216;53.724;9.898;2022-08-19T04:01:15;21.40;90.30
40516;DHT22;26216;53.724;9.898;2022-08-19T04:03:41;21.40;90.20
40516;DHT22;26216;53.724;9.898;2022-08-19T04:06:31;21.50;90.20
40516;DHT22;26216;53.724;9.898;2022-08-19T04:08:59;21.40;90.30
40516;DHT22;26216;53.724;9.898;2022-08-19T04:11:30;21.50;90.20
40516;DHT22;26216;53.724;9.898;2022-08-19T04:13:56;21.50;90.20
40516;DHT22;26216;53.724;9.898;2022-08-19T04:16:25;21.50;90.30
40516;DHT22;26216;53.724;9.898;2022-08-19T04:18:55;21.40;90.40
40516;DHT22;26216;53.724;9.898;2022-08-19T04:21:24;21.40;90.50
40516;DHT22;26216;53.724;9.898;2022-08-19T04:23:51;21.40;90.50
40516;DHT22;26216;53.724;9.898;2022-08-19T04:26:22;21.40;90.40
40516;DHT22;26216;53.724;9.898;2022-08-19T04:28:48;21.40;90.30
40516;DHT22;26216;53.724;9.898;2022-08-19T04:31:16;21.40;90.30
40516;DHT22;26216;53.724;9.898;2022-08-19T04:33:42;21.40;90.40
40516;DHT22;26216;53.724;9.898;2022-08-19T04:36:18;21.40;90.60
40516;DHT22;26216;53.724;9.898;2022-08-19T04:38:47;21.40;90.60
40516;DHT22;26216;53.724;9.898;2022-08-19T04:41:13;21.40;90.60
40516;DHT22;26216;53.724;9.898;2022-08-19T04:43:57;21.30;90.90
40516;DHT22;26216;53.724;9.898;2022-08-19T04:46:23;21.30;90.60
40516;DHT22;26216;53.724;9.898;2022-08-19T04:48:49;21.30;90.70
40516;DHT22;26216;53.724;9.898;2022-08-19T04:51:15;21.30;90.90
40516;DHT22;26216;53.724;9.898;2022-08-19T04:53:41;21.30;90.80
40516;DHT22;26216;53.724;9.898;2022-08-19T04:56:11;21.30;90.80
40516;DHT22;26216;53.724;9.898;2022-08-19T04:58:40;21.30;90.90
40516;DHT22;26216;53.724;9.898;2022-08-19T05:01:09;21.20;90.80
40516;DHT22;26216;53.724;9.898;2022-08-19T05:03:37;21.20;90.90
40516;DHT22;26216;53.724;9.898;2022-08-19T05:06:06;21.20;90.90
40516;DHT22;26216;53.724;9.898;2022-08-19T05:08:33;21.30;90.90
40516;DHT22;26216;53.724;9.898;2022-08-19T05:11:00;21.20;91.10
40516;DHT22;26216;53.724;9.898;2022-08-19T05:13:26;21.20;91.20
40516;DHT22;26216;53.724;9.898;2022-08-19T05:15:56;21.20;91.10
40516;DHT22;26216;53.724;9.898;2022-08-19T05:18:23;21.20;91.00
40516;DHT22;26216;53.724;9.898;2022-08-19T05:21:09;21.20;91.10
40516;DHT22;26216;53.724;9.898;2022-08-19T05:23:54;21.20;91.10
40516;DHT22;26216;53.724;9.898;2022-08-19T05:26:20;21.20;91.10
40516;DHT22;26216;53.724;9.898;2022-08-19T05:28:46;21.20;91.10
40516;DHT22;26216;53.724;9.898;2022-08-19T05:31:12;21.20;91.00
40516;DHT22;26216;53.724;9.898;2022-08-19T05:33:38;21.20;91.00
40516;DHT22;26216;53.724;9.898;2022-08-19T05:36:06;21.20;91.20
40516;DHT22;26216;53.724;9.898;2022-08-19T05:38:34;21.20;91.10
40516;DHT22;26216;53.724;9.898;2022-08-19T05:41:11;21.30;91.10
40516;DHT22;26216;53.724;9.898;2022-08-19T05:43:37;21.30;91.10
40516;DHT22;26216;53.724;9.898;2022-08-19T05:46:04;21.30;91.00
40516;DHT22;26216;53.724;9.898;2022-08-19T05:48:32;21.30;91.00
40516;DHT22;26216;53.724;9.898;2022-08-19T05:51:06;21.30;91.00
40516;DHT22;26216;53.724;9.898;2022-08-19T05:53:33;21.40;91.10
40516;DHT22;26216;53.724;9.898;2022-08-19T05:56:08;21.40;90.90
40516;DHT22;26216;53.724;9.898;2022-08-19T05:58:35;21.30;91.10
40516;DHT22;26216;53.724;9.898;2022-08-19T06:01:03;21.30;91.00
40516;DHT22;26216;53.724;9.898;2022-08-19T06:03:34;21.40;91.00
40516;DHT22;26216;53.724;9.898;2022-08-19T06:06:01;21.40;91.20
40516;DHT22;26216;53.724;9.898;2022-08-19T06:08:28;21.40;91.10
40516;DHT22;26216;53.724;9.898;2022-08-19T06:10:54;21.30;91.10
40516;DHT22;26216;53.724;9.898;2022-08-19T06:13:21;21.40;91.20
40516;DHT22;26216;53.724;9.898;2022-08-19T06:15:48;21.40;91.20
40516;DHT22;26216;53.724;9.898;2022-08-19T06:18:15;21.30;91.30
40516;DHT22;26216;53.724;9.898;2022-08-19T06:20:41;21.40;91.30
40516;DHT22;26216;53.724;9.898;2022-08-19T06:23:08;21.40;91.30
40516;DHT22;26216;53.724;9.898;2022-08-19T06:25:35;21.40;91.20
40516;DHT22;26216;53.724;9.898;2022-08-19T06:28:02;21.50;91.20
40516;DHT22;26216;53.724;9.898;2022-08-19T06:30:28;21.50;91.20
40516;DHT22;26216;53.724;9.898;2022-08-19T06:32:55;21.50;91.10
40516;DHT22;26216;53.724;9.898;2022-08-19T06:35:20;21.60;91.10
40516;DHT22;26216;53.724;9.898;2022-08-19T06:37:46;21.60;91.10
40516;DHT22;26216;53.724;9.898;2022-08-19T06:40:12;21.60;91.10
40516;DHT22;26216;53.724;9.898;2022-08-19T06:42:38;21.60;91.00
40516;DHT22;26216;53.724;9.898;2022-08-19T06:45:05;21.60;91.00
40516;DHT22;26216;53.724;9.898;2022-08-19T06:47:31;21.60;91.00
40516;DHT22;26216;53.724;9.898;2022-08-19T06:50:01;21.60;91.00
40516;DHT22;26216;53.724;9.898;2022-08-19T06:52:32;21.70;91.00
40516;DHT22;26216;53.724;9.898;2022-08-19T06:54:59;21.80;91.00
40516;DHT22;26216;53.724;9.898;2022-08-19T06:57:26;21.80;91.10
40516;DHT22;26216;53.724;9.898;2022-08-19T06:59:52;21.80;91.00
40516;DHT22;26216;53.724;9.898;2022-08-19T07:02:19;21.80;91.00
40516;DHT22;26216;53.724;9.898;2022-08-19T07:04:46;21.90;91.00
40516;DHT22;26216;53.724;9.898;2022-08-19T07:07:14;21.90;90.90
40516;DHT22;26216;53.724;9.898;2022-08-19T07:09:44;21.90;90.80
40516;DHT22;26216;53.724;9.898;2022-08-19T07:12:12;22.00;90.80
40516;DHT22;26216;53.724;9.898;2022-08-19T07:14:41;22.00;90.80
40516;DHT22;26216;53.724;9.898;2022-08-19T07:17:10;22.00;90.80
40516;DHT22;26216;53.724;9.898;2022-08-19T07:19:37;22.00;90.70
40516;DHT22;26216;53.724;9.898;2022-08-19T07:22:06;22.00;90.70
40516;DHT22;26216;53.724;9.898;2022-08-19T07:24:33;21.90;90.80
40516;DHT22;26216;53.724;9.898;2022-08-19T07:27:01;21.90;90.80
40516;DHT22;26216;53.724;9.898;2022-08-19T07:29:33;21.90;90.80
40516;DHT22;26216;53.724;9.898;2022-08-19T07:31:59;21.90;90.80
40516;DHT22;26216;53.724;9.898;2022-08-19T07:34:27;21.90;91.00
40516;DHT22;26216;53.724;9.898;2022-08-19T07:36:54;21.90;90.90
40516;DHT22;26216;53.724;9.898;2022-08-19T07:39:30;21.90;90.90
40516;DHT22;26216;53.724;9.898;2022-08-19T07:41:57;21.80;90.90
40516;DHT22;26216;53.724;9.898;2022-08-19T07:44:24;21.80;91.00
40516;DHT22;26216;53.724;9.898;2022-08-19T07:46:53;21.80;91.10
40516;DHT22;26216;53.724;9.898;2022-08-19T07:49:22;21.70;91.20
40516;DHT22;26216;53.724;9.898;2022-08-19T07:51:51;21.80;91.20
40516;DHT22;26216;53.724;9.898;2022-08-19T07:54:17;21.70;91.20
40516;DHT22;26216;53.724;9.898;2022-08-19T07:56:44;21.80;91.30
40516;DHT22;26216;53.724;9.898;2022-08-19T07:59:10;21.80;91.30
40516;DHT22;26216;53.724;9.898;2022-08-19T08:01:36;21.80;91.20
40516;DHT22;26216;53.724;9.898;2022-08-19T08:04:02;21.80;91.20
40516;DHT22;26216;53.724;9.898;2022-08-19T08:06:47;21.80;91.20
40516;DHT22;26216;53.724;9.898;2022-08-19T08:09:48;21.90;91.20
40516;DHT22;26216;53.724;9.898;2022-08-19T08:12:21;21.90;91.20
40516;DHT22;26216;53.724;9.898;2022-08-19T08:14:53;22.00;91.20
40516;DHT22;26216;53.724;9.898;2022-08-19T08:17:23;22.00;91.20
40516;DHT22;26216;53.724;9.898;2022-08-19T08:19:49;22.00;91.20
40516;DHT22;26216;53.724;9.898;2022-08-19T08:22:19;22.00;91.10
40516;DHT22;26216;53.724;9.898;2022-08-19T08:25:10;22.10;91.20
40516;DHT22;26216;53.724;9.898;2022-08-19T08:27:39;22.10;91.10
40516;DHT22;26216;53.724;9.898;2022-08-19T08:30:10;22.10;91.00
40516;DHT22;26216;53.724;9.898;2022-08-19T08:32:36;22.10;91.00
40516;DHT22;26216;53.724;9.898;2022-08-19T08:35:07;22.20;91.10
40516;DHT22;26216;53.724;9.898;2022-08-19T08:37:34;22.20;90.90
40516;DHT22;26216;53.724;9.898;2022-08-19T08:40:07;22.20;91.00
40516;DHT22;26216;53.724;9.898;2022-08-19T08:42:37;22.20;90.90
40516;DHT22;26216;53.724;9.898;2022-08-19T08:45:13;22.20;91.00
40516;DHT22;26216;53.724;9.898;2022-08-19T08:47:44;22.20;91.00
40516;DHT22;26216;53.724;9.898;2022-08-19T08:50:21;22.20;91.00
40516;DHT22;26216;53.724;9.898;2022-08-19T08:52:52;22.20;91.20
40516;DHT22;26216;53.724;9.898;2022-08-19T08:55:27;22.30;91.00
40516;DHT22;26216;53.724;9.898;2022-08-19T08:58:16;22.30;91.00
40516;DHT22;26216;53.724;9.898;2022-08-19T09:00:46;22.30;91.00
40516;DHT22;26216;53.724;9.898;2022-08-19T09:03:27;22.30;90.90
40516;DHT22;26216;53.724;9.898;2022-08-19T09:08:56;22.40;91.00
40516;DHT22;26216;53.724;9.898;2022-08-19T09:12:31;22.40;91.00
40516;DHT22;26216;53.724;9.898;2022-08-19T09:17:12;22.50;90.90
40516;DHT22;26216;53.724;9.898;2022-08-19T09:19:55;22.50;90.80
40516;DHT22;26216;53.724;9.898;2022-08-19T09:22:22;22.50;90.80
40516;DHT22;26216;53.724;9.898;2022-08-19T09:24:49;22.60;90.80
40516;DHT22;26216;53.724;9.898;2022-08-19T09:27:18;22.60;90.80
40516;DHT22;26216;53.724;9.898;2022-08-19T09:29:46;22.70;90.70
40516;DHT22;26216;53.724;9.898;2022-08-19T09:32:14;22.60;90.60
40516;DHT22;26216;53.724;9.898;2022-08-19T09:34:40;22.60;90.50
40516;DHT22;26216;53.724;9.898;2022-08-19T09:37:07;22.70;90.60
40516;DHT22;26216;53.724;9.898;2022-08-19T09:39:33;22.70;90.50
40516;DHT22;26216;53.724;9.898;2022-08-19T09:41:59;22.60;90.40
40516;DHT22;26216;53.724;9.898;2022-08-19T09:44:25;22.70;90.50
40516;DHT22;26216;53.724;9.898;2022-08-19T09:46:51;22.80;90.60
40516;DHT22;26216;53.724;9.898;2022-08-19T09:49:18;22.70;90.30
40516;DHT22;26216;53.724;9.898;2022-08-19T09:51:46;22.70;90.40
40516;DHT22;26216;53.724;9.898;2022-08-19T09:54:15;22.70;90.40
40516;DHT22;26216;53.724;9.898;2022-08-19T09:56:40;22.80;90.30
40516;DHT22;26216;53.724;9.898;2022-08-19T09:59:06;22.80;90.40
40516;DHT22;26216;53.724;9.898;2022-08-19T10:01:32;22.80;90.30
40516;DHT22;26216;53.724;9.898;2022-08-19T10:04:00;22.90;90.40
40516;DHT22;26216;53.724;9.898;2022-08-19T10:06:28;22.90;90.40
40516;DHT22;26216;53.724;9.898;2022-08-19T10:08:59;22.90;90.30
40516;DHT22;26216;53.724;9.898;2022-08-19T10:11:25;23.00;90.30
40516;DHT22;26216;53.724;9.898;2022-08-19T10:13:52;23.10;90.10
40516;DHT22;26216;53.724;9.898;2022-08-19T10:16:21;23.10;89.80
40516;DHT22;26216;53.724;9.898;2022-08-19T10:18:49;23.10;90.00
40516;DHT22;26216;53.724;9.898;2022-08-19T10:21:38;23.10;89.60
40516;DHT22;26216;53.724;9.898;2022-08-19T10:24:05;23.10;89.70
40516;DHT22;26216;53.724;9.898;2022-08-19T10:26:34;23.10;89.60
40516;DHT22;26216;53.724;9.898;2022-08-19T10:29:03;23.10;89.80
40516;DHT22;26216;53.724;9.898;2022-08-19T10:31:32;23.10;89.60
40516;DHT22;26216;53.724;9.898;2022-08-19T10:33:58;23.10;89.70
40516;DHT22;26216;53.724;9.898;2022-08-19T10:36:27;23.20;89.70
40516;DHT22;26216;53.724;9.898;2022-08-19T10:38:55;23.20;89.40
40516;DHT22;26216;53.724;9.898;2022-08-19T10:41:30;23.20;89.10
40516;DHT22;26216;53.724;9.898;2022-08-19T10:44:00;23.10;89.00
40516;DHT22;26216;53.724;9.898;2022-08-19T10:46:28;23.20;89.20
40516;DHT22;26216;53.724;9.898;2022-08-19T10:48:56;23.10;89.20
40516;DHT22;26216;53.724;9.898;2022-08-19T10:51:22;23.20;89.60
40516;DHT22;26216;53.724;9.898;2022-08-19T10:54:07;23.20;89.80
40516;DHT22;26216;53.724;9.898;2022-08-19T10:56:34;23.20;89.80
40516;DHT22;26216;53.724;9.898;2022-08-19T10:59:24;23.30;90.00
40516;DHT22;26216;53.724;9.898;2022-08-19T11:02:04;23.40;90.00
40516;DHT22;26216;53.724;9.898;2022-08-19T11:04:30;23.50;90.10
40516;DHT22;26216;53.724;9.898;2022-08-19T11:06:57;23.60;89.10
40516;DHT22;26216;53.724;9.898;2022-08-19T11:09:24;23.70;89.00
40516;DHT22;26216;53.724;9.898;2022-08-19T11:11:52;23.80;89.20
40516;DHT22;26216;53.724;9.898;2022-08-19T11:14:20;23.90;89.20
40516;DHT22;26216;53.724;9.898;2022-08-19T11:16:48;24.10;89.70
40516;DHT22;26216;53.724;9.898;2022-08-19T11:19:15;24.20;89.40
40516;DHT22;26216;53.724;9.898;2022-08-19T11:21:47;24.40;88.10
40516;DHT22;26216;53.724;9.898;2022-08-19T11:24:16;24.60;88.40
40516;DHT22;26216;53.724;9.898;2022-08-19T11:26:44;24.80;86.00
40516;DHT22;26216;53.724;9.898;2022-08-19T11:29:12;24.90;86.40
40516;DHT22;26216;53.724;9.898;2022-08-19T11:31:42;24.90;85.90
40516;DHT22;26216;53.724;9.898;2022-08-19T11:34:11;25.10;86.10
40516;DHT22;26216;53.724;9.898;2022-08-19T11:36:40;25.20;86.60
40516;DHT22;26216;53.724;9.898;2022-08-19T11:39:07;25.20;86.10
40516;DHT22;26216;53.724;9.898;2022-08-19T11:41:33;25.30;85.50
40516;DHT22;26216;53.724;9.898;2022-08-19T11:44:00;25.40;84.40
40516;DHT22;26216;53.724;9.898;2022-08-19T11:46:28;25.40;84.30
40516;DHT22;26216;53.724;9.898;2022-08-19T11:48:59;25.40;84.00
40516;DHT22;26216;53.724;9.898;2022-08-19T11:51:27;25.50;84.10
40516;DHT22;26216;53.724;9.898;2022-08-19T11:53:54;25.50;84.00
40516;DHT22;26216;53.724;9.898;2022-08-19T11:56:20;25.50;83.80
40516;DHT22;26216;53.724;9.898;2022-08-19T11:58:47;25.50;85.10
40516;DHT22;26216;53.724;9.898;2022-08-19T12:01:15;25.50;84.60
40516;DHT22;26216;53.724;9.898;2022-08-19T12:03:43;25.50;84.40
40516;DHT22;26216;53.724;9.898;2022-08-19T12:06:12;25.70;84.50
40516;DHT22;26216;53.724;9.898;2022-08-19T12:08:40;25.70;84.20
40516;DHT22;26216;53.724;9.898;2022-08-19T12:11:06;25.80;83.50
40516;DHT22;26216;53.724;9.898;2022-08-19T12:13:36;25.90;84.10
40516;DHT22;26216;53.724;9.898;2022-08-19T12:16:14;26.00;84.30
40516;DHT22;26216;53.724;9.898;2022-08-19T12:18:42;26.10;81.90
40516;DHT22;26216;53.724;9.898;2022-08-19T12:21:10;26.20;82.70
40516;DHT22;26216;53.724;9.898;2022-08-19T12:23:39;26.30;81.10
40516;DHT22;26216;53.724;9.898;2022-08-19T12:26:06;26.30;79.70
40516;DHT22;26216;53.724;9.898;2022-08-19T12:28:32;26.30;80.10
40516;DHT22;26216;53.724;9.898;2022-08-19T12:30:58;26.30;81.30
40516;DHT22;26216;53.724;9.898;2022-08-19T12:33:24;26.30;80.90
40516;DHT22;26216;53.724;9.898;2022-08-19T12:35:51;26.40;80.30
40516;DHT22;26216;53.724;9.898;2022-08-19T12:38:18;26.40;81.40
40516;DHT22;26216;53.724;9.898;2022-08-19T12:40:48;26.50;81.80
40516;DHT22;26216;53.724;9.898;2022-08-19T12:43:15;26.50;80.60
40516;DHT22;26216;53.724;9.898;2022-08-19T12:45:41;26.50;80.70
40516;DHT22;26216;53.724;9.898;2022-08-19T12:48:09;26.50;80.50
40516;DHT22;26216;53.724;9.898;2022-08-19T12:50:35;26.50;80.00
40516;DHT22;26216;53.724;9.898;2022-08-19T12:53:01;26.50;79.30
40516;DHT22;26216;53.724;9.898;2022-08-19T12:55:27;26.50;79.30
40516;DHT22;26216;53.724;9.898;2022-08-19T12:57:54;26.50;79.50
40516;DHT22;26216;53.724;9.898;2022-08-19T13:00:21;26.50;80.20
40516;DHT22;26216;53.724;9.898;2022-08-19T13:02:51;26.40;79.30
40516;DHT22;26216;53.724;9.898;2022-08-19T13:05:25;26.50;80.70
40516;DHT22;26216;53.724;9.898;2022-08-19T13:07:53;26.50;81.30
40516;DHT22;26216;53.724;9.898;2022-08-19T13:10:29;26.50;79.60
40516;DHT22;26216;53.724;9.898;2022-08-19T13:12:57;26.60;80.00
40516;DHT22;26216;53.724;9.898;2022-08-19T13:15:25;26.60;80.20
40516;DHT22;26216;53.724;9.898;2022-08-19T13:17:54;26.70;80.10
40516;DHT22;26216;53.724;9.898;2022-08-19T13:20:21;26.80;78.80
40516;DHT22;26216;53.724;9.898;2022-08-19T13:22:48;26.80;79.30
40516;DHT22;26216;53.724;9.898;2022-08-19T13:25:15;26.90;78.60
40516;DHT22;26216;53.724;9.898;2022-08-19T13:27:43;26.90;78.60
40516;DHT22;26216;53.724;9.898;2022-08-19T13:30:12;26.90;78.40
40516;DHT22;26216;53.724;9.898;2022-08-19T13:32:56;27.10;79.50
40516;DHT22;26216;53.724;9.898;2022-08-19T13:35:51;27.10;79.10
40516;DHT22;26216;53.724;9.898;2022-08-19T13:38:22;27.20;77.80
40516;DHT22;26216;53.724;9.898;2022-08-19T13:40:50;27.30;78.80
40516;DHT22;26216;53.724;9.898;2022-08-19T13:43:18;27.40;78.10
40516;DHT22;26216;53.724;9.898;2022-08-19T13:45:45;27.40;77.70
40516;DHT22;26216;53.724;9.898;2022-08-19T13:48:12;27.50;77.50
40516;DHT22;26216;53.724;9.898;2022-08-19T13:50:40;27.50;76.40
40516;DHT22;26216;53.724;9.898;2022-08-19T13:53:08;27.50;76.70
40516;DHT22;26216;53.724;9.898;2022-08-19T13:55:34;27.50;76.10
40516;DHT22;26216;53.724;9.898;2022-08-19T13:58:01;27.40;75.90
40516;DHT22;26216;53.724;9.898;2022-08-19T14:00:30;27.40;75.80
40516;DHT22;26216;53.724;9.898;2022-08-19T14:02:57;27.40;76.00
40516;DHT22;26216;53.724;9.898;2022-08-19T14:05:25;27.30;76.00
40516;DHT22;26216;53.724;9.898;2022-08-19T14:07:52;27.20;76.60
40516;DHT22;26216;53.724;9.898;2022-08-19T14:10:19;27.20;76.40
40516;DHT22;26216;53.724;9.898;2022-08-19T14:12:46;27.10;75.90
40516;DHT22;26216;53.724;9.898;2022-08-19T14:15:14;27.00;76.30
40516;DHT22;26216;53.724;9.898;2022-08-19T14:17:43;27.00;76.70
40516;DHT22;26216;53.724;9.898;2022-08-19T14:20:11;27.00;76.90
40516;DHT22;26216;53.724;9.898;2022-08-19T14:22:40;27.00;77.00
40516;DHT22;26216;53.724;9.898;2022-08-19T14:25:08;26.90;76.80
40516;DHT22;26216;53.724;9.898;2022-08-19T14:27:36;26.90;77.20
40516;DHT22;26216;53.724;9.898;2022-08-19T14:30:04;27.00;77.60
40516;DHT22;26216;53.724;9.898;2022-08-19T14:32:30;27.00;77.70
40516;DHT22;26216;53.724;9.898;2022-08-19T14:34:56;27.00;76.30
40516;DHT22;26216;53.724;9.898;2022-08-19T14:37:22;27.00;76.80
40516;DHT22;26216;53.724;9.898;2022-08-19T14:39:48;27.00;76.40
40516;DHT22;26216;53.724;9.898;2022-08-19T14:42:14;27.00;76.10
40516;DHT22;26216;53.724;9.898;2022-08-19T14:44:41;27.10;76.50
40516;DHT22;26216;53.724;9.898;2022-08-19T14:47:08;27.10;76.80
40516;DHT22;26216;53.724;9.898;2022-08-19T14:49:34;27.10;75.90
40516;DHT22;26216;53.724;9.898;2022-08-19T14:52:00;27.10;75.70
40516;DHT22;26216;53.724;9.898;2022-08-19T14:54:27;27.10;75.90
40516;DHT22;26216;53.724;9.898;2022-08-19T14:56:53;27.10;75.70
40516;DHT22;26216;53.724;9.898;2022-08-19T14:59:20;27.10;76.00
40516;DHT22;26216;53.724;9.898;2022-08-19T15:01:46;27.10;76.00
40516;DHT22;26216;53.724;9.898;2022-08-19T15:04:11;27.10;75.50
40516;DHT22;26216;53.724;9.898;2022-08-19T15:06:38;27.10;76.00
40516;DHT22;26216;53.724;9.898;2022-08-19T15:09:04;27.10;76.20
40516;DHT22;26216;53.724;9.898;2022-08-19T15:11:31;27.10;75.70
40516;DHT22;26216;53.724;9.898;2022-08-19T15:13:58;27.10;75.30
40516;DHT22;26216;53.724;9.898;2022-08-19T15:16:25;27.10;74.30
40516;DHT22;26216;53.724;9.898;2022-08-19T15:18:55;27.20;74.70
40516;DHT22;26216;53.724;9.898;2022-08-19T15:21:23;27.20;75.20
40516;DHT22;26216;53.724;9.898;2022-08-19T15:23:50;27.30;75.10
40516;DHT22;26216;53.724;9.898;2022-08-19T15:26:18;27.30;75.70
40516;DHT22;26216;53.724;9.898;2022-08-19T15:28:44;27.40;74.90
40516;DHT22;26216;53.724;9.898;2022-08-19T15:31:12;27.40;74.50
40516;DHT22;26216;53.724;9.898;2022-08-19T15:33:39;27.40;74.80
40516;DHT22;26216;53.724;9.898;2022-08-19T15:36:08;27.40;74.90
40516;DHT22;26216;53.724;9.898;2022-08-19T15:38:34;27.40;74.90
40516;DHT22;26216;53.724;9.898;2022-08-19T15:41:03;27.40;75.00
40516;DHT22;26216;53.724;9.898;2022-08-19T15:44:03;27.40;74.40
40516;DHT22;26216;53.724;9.898;2022-08-19T15:46:32;27.40;73.60